Aeroporto :
LOGIN :

Iscrizione | Disclaimer

   EN    FR    IT 

 










Sommario :    VFR   VFR Marginale   IFR   IFR Intensivo   IFR Molto Intensivo
Visibilità : 
Base nubi : 
>= 8 km
>= 3000ft
5 / 8 km
1000 / 3000 ft
1500m / 5 km
500 / 1000 ft
800 / 1500m
200 / 500 ft
< 800m
< 200 ft
Simboli :   Temporali  Nebbia  Neve Forte  Precipitazioni Forti  Vento > 20 kt
SIGMETs :   Varie  Temporali  Ghiacco  Turbolenza  Onda orograficha  Ceneri Vulcaniche






- Altitudine del aeroporto : 410 ft
- Codice IATA : AVB


LIPA - Aviano AB Pordenone

ULTIMO METAR :
  • 061655Z 01003KT CAVOK 03/02 Q1022 RMK SKC VIS MIN 9999 WIND THR05 /////KT WIND THR23 /////KT A3018 BLU

METARs OBSOLETI :
  • 061555Z 27002KT 9999 FEW110 05/00 Q1022 RMK FEW VIS MIN 9999 WIND THR05 /////KT WIND THR23 /////KT A3018 BLU
  • 061455Z 24003KT 9999 FEW110 07/02 Q1022 RMK FEW VIS MIN 9999 WIND THR05 /////KT WIND THR23 /////KT A3019 BLU

TAF TAF LIPA
Valido dal 06 a 18 ore il 07 a 03 ore UTC


061700Z 0618/0703 VRB03KT 9999 SCT060
PROB30
TEMPO 0623/0703 5000 BR BKN060



MetMap, La meteo Aeronautica in un colpo d'occhio ! - Copyright ORBIFLY Dicembre 2007 - Disclaimer

ORBIFLY MET'MAP TEAM :

Programmazione e sviluppo : Alexandra Zaïnal
Concezione : Baudouin d'Aumeries
Aiuto per la programmazione : Marc-Olivier Méhu
Supporto tecnico e logistico : Manuel Goepfert
Aiuto per la traduzione : Arnaldo La Scala

Contatto : metmap@orbifly.com




FONTI E CREDITI :

   NOAA